Language selection

Features

My Weather Profile Weather Topics  | 

Atlantic - Newfoundland: Past 24 Hour Conditions

 

Natashquan Airport

10:00 AM EST 17 November 2019
Disclaimer

This table is a summary of hourly weather conditions for the past 24 hours.
Please note that these observations might not always be representative of weather conditions over their associated marine area.

Date / Time
(EST)
Wind(knots) Conditions Visibility(km) Pressure(kPa) Air tempC) Relative humidity(%) Dew pointC) Wind Chill
17 November 2019
10:00 WNW 15 Sunny 16 102.6 -6 62 -12 -14
9:00 WNW 11 gust 19 Sunny 16 102.7 -6 64 -12 -13
8:00 WNW 15 Sunny 16 102.6 -6 68 -11 -14
7:00 WNW 15 gust 22 Sunny 16 102.5 -7 70 -11 -15
6:00 W 14 Clear 16 102.4 -7 73 -11 -15
5:00 W 13 gust 18 Clear 16 102.3 -7 75 -11 -15
4:00 WNW 12 gust 19 Clear 16 102.2 -8 75 -11 -15
3:00 WNW 13 gust 19 Clear 16 102.1 -7 73 -11 -14
2:00 W 15 gust 22 Clear 16 102.0 -7 72 -11 -15
1:00 WNW 18 gust 26 Clear 16 101.9 -6 69 -11 -15
0:00 W 16 gust 22 Clear 16 101.7 -7 72 -11 -15
16 November 2019
23:00 WNW 14 gust 20 Clear 16 101.6 -7 74 -11 -15
22:00 WNW 18 gust 25 Clear 16 101.5 -6 69 -11 -15
21:00 WNW 19 gust 30 Clear 16 101.4 -6 67 -11 -14
20:00 WNW 21 gust 27 Clear 16 101.3 -6 67 -11 -15
19:00 W 26 gust 34 Clear 16 101.2 -6 66 -11 -16
18:00 W 20 gust 32 Clear 16 101.1 -6 64 -12 -15
17:00 W 23 gust 33 Clear 16 101.0 -6 61 -12 -15
16:00 WNW 19 gust 29 Clear 16 101.0 -6 60 -12 -14
15:00 WNW 22 gust 30 Sunny 16 100.8 -5 60 -12 -15
14:00 W 19 gust 29 Sunny 16 100.8 -5 62 -11 -14
13:00 W 21 gust 29 Sunny 13 100.7 -5 61 -12 -14
12:00 WNW 20 gust 32 Haze 4 100.6 -5 63 -11 -14
11:00 WNW 18 gust 29 Haze 5 100.6 -5 65 -11 -14
10:00 WNW 17 Sunny 16 100.5 -5 69 -10 -13

Zoom-in to make a selection

Map of Atlantic - Newfoundland marine weather areas Banquereau - 44139 Blanc-Sablon Airport Cap Whittle Chevery Natashquan Airport Heath Point Îles de la Madeleine Airport Miscou Island Eskasoni (First Nations) Grand Étang Ingonish Beach North Mountain St.Paul Island J.A. Douglas McCurdy Sydney Airport Charlottetown Airport East Point North Cape Argentia Bonavista Burgeo Cape Race Corner Brook Daniel's Harbour Englee Ferolle Point La Scie Port aux Basques Rocky Harbour Sagona Island St. Anthony Airport St. John's Int'l Airport St. Lawrence Stephenville Airport Twillingate Winterland Branch Hill Wreckhouse Grates Cove Pool's Island Marticot Island Long Pond Cartwright Airport Mary's Harbour
Legend:
buoy Buoy
land station Land Station

Atlantic - Newfoundland Area

Another Region

What we are doing

Date modified: